Time;durP1;ratioP1;P1;durP2;ratioP2;P2;SDS_P1;SDS_P2;PMS_P1;PMS_P2;Temp;Humidity;BMP_temperature;BMP_pressure;BME280_temperature;BME280_humidity;BME280_pressure;Samples;Min_cycle;Max_cycle;Signal;HPM_P1;HPM_P2
2023/02/12 00:01:16;;;;;;;29.57;14.47;;;9.80;99.90;;;;;;6123340;23;20442;-70
2023/02/12 00:03:44;;;;;;;48.93;18.13;;;9.80;99.90;;;;;;6123278;23;20411;-70
2023/02/12 00:06:12;;;;;;;34.60;17.67;;;9.80;99.90;;;;;;6123067;23;20464;-70
2023/02/12 00:08:40;;;;;;;24.13;13.67;;;9.90;99.90;;;;;;6122991;23;20579;-70
2023/02/12 00:11:12;;;;;;;30.27;16.03;;;9.80;99.90;;;;;;6122877;23;20409;-70
2023/02/12 00:13:39;;;;;;;28.93;14.30;;;9.80;99.90;;;;;;6124368;23;20523;-70
2023/02/12 00:16:08;;;;;;;27.70;13.93;;;9.70;99.90;;;;;;6122806;23;20378;-70
2023/02/12 00:18:35;;;;;;;30.53;15.40;;;9.60;99.90;;;;;;6123818;23;20813;-70
2023/02/12 00:21:02;;;;;;;43.10;14.63;;;9.70;99.90;;;;;;6124205;23;20497;-71
2023/02/12 00:23:31;;;;;;;30.57;15.50;;;9.70;99.90;;;;;;6121780;23;20938;-70
2023/02/12 00:25:58;;;;;;;31.83;15.83;;;9.70;99.90;;;;;;6123162;23;20366;-70
2023/02/12 00:28:25;;;;;;;29.20;12.80;;;9.60;99.90;;;;;;6123836;23;20414;-70
2023/02/12 00:30:52;;;;;;;27.57;13.97;;;9.70;99.90;;;;;;6122850;23;20830;-70
2023/02/12 00:33:19;;;;;;;28.57;12.00;;;9.70;99.90;;;;;;6123717;23;20386;-69
2023/02/12 00:35:56;;;;;;;23.10;13.93;;;9.70;99.90;;;;;;6123185;23;20450;-70
2023/02/12 00:38:22;;;;;;;23.67;14.97;;;9.70;99.90;;;;;;6122302;23;20369;-70
2023/02/12 00:40:51;;;;;;;27.80;12.87;;;9.60;99.90;;;;;;6072663;23;20461;-70
2023/02/12 00:43:20;;;;;;;27.00;12.50;;;9.60;99.90;;;;;;6122940;23;20903;-70
2023/02/12 00:45:48;;;;;;;27.27;14.43;;;9.70;99.90;;;;;;6121689;23;20413;-69
2023/02/12 00:48:15;;;;;;;25.10;14.83;;;9.70;99.90;;;;;;6123121;23;20426;-70
2023/02/12 00:50:45;;;;;;;23.43;11.73;;;9.70;99.90;;;;;;6122947;23;20413;-71
2023/02/12 00:53:12;;;;;;;31.53;14.97;;;9.70;99.90;;;;;;6128780;23;20370;-71
2023/02/12 00:55:40;;;;;;;23.90;12.87;;;9.60;99.90;;;;;;6125666;23;20384;-70
2023/02/12 00:58:09;;;;;;;27.67;13.37;;;9.60;99.90;;;;;;6123834;23;20728;-70
2023/02/12 01:00:36;;;;;;;27.23;13.67;;;9.60;99.90;;;;;;6124429;23;20547;-71
2023/02/12 01:03:04;;;;;;;27.53;14.10;;;9.60;99.90;;;;;;6124071;23;20469;-70
2023/02/12 01:05:31;;;;;;;33.20;15.27;;;9.60;99.90;;;;;;6124007;23;20447;-70
2023/02/12 01:07:58;;;;;;;32.50;14.67;;;9.60;99.90;;;;;;6124046;23;20408;-70
2023/02/12 01:10:25;;;;;;;22.70;12.20;;;9.50;99.90;;;;;;6123214;23;20967;-70
2023/02/12 01:12:52;;;;;;;25.83;13.17;;;9.60;99.90;;;;;;6123924;23;20434;-70
2023/02/12 01:15:21;;;;;;;29.83;13.07;;;9.50;99.90;;;;;;6123166;23;20493;-70
2023/02/12 01:17:48;;;;;;;33.10;12.27;;;9.60;99.90;;;;;;6124464;23;20712;-70
2023/02/12 01:20:21;;;;;;;25.57;13.50;;;9.60;99.90;;;;;;6122939;23;20428;-70
2023/02/12 01:22:48;;;;;;;23.70;11.80;;;9.50;99.90;;;;;;6123209;23;20408;-70
2023/02/12 01:25:15;;;;;;;25.23;12.63;;;9.50;99.90;;;;;;6123295;23;20417;-70
2023/02/12 01:27:42;;;;;;;24.73;11.80;;;9.50;99.90;;;;;;6123339;23;20414;-70
2023/02/12 01:30:12;;;;;;;33.20;14.30;;;9.50;99.90;;;;;;6123068;23;20899;-70
2023/02/12 01:32:41;;;;;;;22.53;9.57;;;9.60;99.90;;;;;;6123540;23;20398;-70
2023/02/12 01:35:10;;;;;;;24.33;11.17;;;9.60;99.90;;;;;;6123693;23;20871;-70
2023/02/12 01:37:37;;;;;;;27.20;12.73;;;9.60;99.90;;;;;;6124363;23;20468;-69
2023/02/12 01:40:08;;;;;;;29.40;10.90;;;9.50;99.90;;;;;;6124152;23;20484;-69
2023/02/12 01:42:35;;;;;;;32.83;12.50;;;9.50;99.90;;;;;;6123532;23;20466;-70
2023/02/12 01:45:44;;;;;;;32.43;10.30;;;9.50;99.90;;;;;;6123941;23;20445;-70
2023/02/12 01:48:14;;;;;;;22.43;10.83;;;9.30;99.90;;;;;;6035507;23;20409;-70
2023/02/12 01:50:43;;;;;;;23.97;11.67;;;9.30;99.90;;;;;;6035113;23;20466;-70
2023/02/12 01:53:12;;;;;;;19.03;11.30;;;9.20;99.90;;;;;;6083140;23;20466;-70
2023/02/12 01:55:39;;;;;;;18.90;11.17;;;9.40;99.90;;;;;;6124945;23;20472;-70
2023/02/12 01:58:08;;;;;;;23.67;10.53;;;9.40;99.90;;;;;;6125024;23;20386;-71
2023/02/12 02:00:35;;;;;;;33.87;16.90;;;9.40;99.90;;;;;;6125644;23;20465;-70
2023/02/12 02:03:02;;;;;;;28.87;12.33;;;9.50;99.90;;;;;;6125798;23;20378;-70
2023/02/12 02:05:42;;;;;;;24.50;11.47;;;9.50;99.90;;;;;;6125231;23;20735;-70
2023/02/12 02:08:10;;;;;;;22.73;10.73;;;9.50;99.90;;;;;;6124831;23;20453;-70
2023/02/12 02:10:37;;;;;;;18.23;10.40;;;9.50;99.90;;;;;;6074896;23;20407;-70
2023/02/12 02:15:54;;;;;;;26.97;12.00;;;9.50;99.90;;;;;;6124654;23;20424;-71
2023/02/12 02:18:26;;;;;;;22.27;12.00;;;9.50;99.90;;;;;;6124807;23;20482;-70
2023/02/12 02:21:30;;;;;;;24.03;11.30;;;9.50;99.90;;;;;;6124524;23;20490;-71
2023/02/12 02:24:22;;;;;;;18.63;9.87;;;9.50;99.90;;;;;;6124846;23;20484;-70
2023/02/12 02:27:15;;;;;;;22.40;10.67;;;9.50;99.90;;;;;;6069014;23;20411;-70
2023/02/12 02:30:07;;;;;;;28.70;11.70;;;9.60;99.90;;;;;;6121616;23;20415;-70
2023/02/12 02:32:42;;;;;;;20.13;11.90;;;9.60;99.90;;;;;;6124331;23;20466;-70
2023/02/12 02:35:15;;;;;;;24.07;11.83;;;9.50;99.90;;;;;;6124659;23;20725;-70
2023/02/12 02:37:51;;;;;;;27.50;12.93;;;9.50;99.90;;;;;;6125280;23;20378;-70
2023/02/12 02:40:19;;;;;;;28.37;12.57;;;9.60;99.90;;;;;;6124378;23;20415;-70
2023/02/12 02:42:54;;;;;;;27.97;12.33;;;9.50;99.90;;;;;;6123689;23;20431;-70
2023/02/12 02:45:28;;;;;;;21.07;10.83;;;9.50;99.90;;;;;;6123967;23;20426;-70
2023/02/12 02:48:00;;;;;;;22.47;12.30;;;9.50;99.90;;;;;;6124999;23;20402;-70
2023/02/12 02:50:30;;;;;;;28.53;13.17;;;9.60;99.90;;;;;;6134283;23;20423;-70
2023/02/12 02:53:02;;;;;;;27.07;12.80;;;9.60;99.90;;;;;;6125555;23;20440;-70
2023/02/12 02:55:36;;;;;;;29.57;11.10;;;9.50;99.90;;;;;;6124395;23;20397;-70
2023/02/12 02:58:09;;;;;;;21.07;11.13;;;9.40;99.90;;;;;;6097771;23;20399;-70
2023/02/12 03:00:42;;;;;;;21.10;11.33;;;9.40;99.90;;;;;;6124905;23;20478;-70
2023/02/12 03:03:15;;;;;;;24.53;11.73;;;9.50;99.90;;;;;;6125038;23;20457;-70
2023/02/12 03:05:44;;;;;;;20.10;12.53;;;9.50;99.90;;;;;;6124848;23;20437;-70
2023/02/12 03:08:19;;;;;;;25.37;10.70;;;9.50;99.90;;;;;;6124753;23;20411;-70
2023/02/12 03:10:49;;;;;;;29.37;11.10;;;9.50;99.90;;;;;;6124651;23;20441;-68
2023/02/12 03:13:21;;;;;;;45.80;15.43;;;9.60;99.90;;;;;;6075242;23;20424;-70
2023/02/12 03:15:54;;;;;;;33.80;13.93;;;9.50;99.90;;;;;;6123867;23;20816;-69
2023/02/12 03:18:26;;;;;;;29.33;14.03;;;9.50;99.90;;;;;;6124520;23;20453;-69
2023/02/12 03:20:59;;;;;;;23.50;12.50;;;9.50;99.90;;;;;;6124369;23;20459;-69
2023/02/12 03:23:29;;;;;;;31.40;12.20;;;9.50;99.90;;;;;;6124150;23;20474;-69
2023/02/12 03:26:01;;;;;;;36.07;16.47;;;9.50;99.90;;;;;;6123453;23;20998;-70
2023/02/12 03:28:31;;;;;;;29.90;10.60;;;9.50;99.90;;;;;;6124146;23;20697;-69
2023/02/12 03:31:07;;;;;;;27.40;11.87;;;9.60;99.90;;;;;;6124134;23;20456;-70
2023/02/12 03:33:44;;;;;;;25.33;13.00;;;9.50;99.90;;;;;;6124893;23;20462;-69
2023/02/12 03:36:26;;;;;;;24.47;10.93;;;9.50;99.90;;;;;;6124216;23;20391;-69
2023/02/12 03:38:55;;;;;;;23.60;11.93;;;9.50;99.90;;;;;;6123935;23;20701;-69
2023/02/12 03:41:27;;;;;;;32.67;12.47;;;9.50;99.90;;;;;;6123720;23;20522;-70
2023/02/12 03:43:58;;;;;;;19.93;10.67;;;9.40;99.90;;;;;;6124435;23;20362;-70
2023/02/12 03:46:33;;;;;;;23.40;10.93;;;9.40;99.90;;;;;;6123329;23;20806;-70
2023/02/12 03:49:05;;;;;;;21.80;12.27;;;9.40;99.90;;;;;;6129547;23;20452;-70
2023/02/12 03:51:36;;;;;;;37.37;13.40;;;9.40;99.90;;;;;;6124021;23;20510;-70
2023/02/12 03:54:05;;;;;;;24.40;10.53;;;9.50;99.90;;;;;;6124734;23;20478;-70
2023/02/12 03:56:37;;;;;;;22.60;13.23;;;9.40;99.90;;;;;;6123472;23;20914;-70
2023/02/12 03:59:05;;;;;;;21.23;9.40;;;9.40;99.90;;;;;;6124558;23;20458;-70
2023/02/12 04:01:35;;;;;;;24.20;10.90;;;9.50;99.90;;;;;;6123448;23;20489;-70
2023/02/12 04:04:05;;;;;;;28.53;11.63;;;9.50;99.90;;;;;;6124702;23;20510;-70
2023/02/12 04:06:32;;;;;;;24.37;10.70;;;9.60;99.90;;;;;;6123831;23;21042;-70
2023/02/12 04:09:03;;;;;;;18.90;10.73;;;9.40;99.90;;;;;;6123424;23;20444;-70
2023/02/12 04:11:36;;;;;;;20.17;12.20;;;9.40;99.90;;;;;;6122936;23;20505;-70
2023/02/12 04:14:17;;;;;;;20.23;9.70;;;9.40;99.90;;;;;;6123483;23;20372;-69
2023/02/12 04:16:51;;;;;;;19.43;10.10;;;9.40;99.90;;;;;;6123071;23;20462;-70
2023/02/12 04:19:26;;;;;;;22.97;11.83;;;9.30;99.90;;;;;;6097751;23;20385;-70
2023/02/12 04:22:04;;;;;;;23.00;10.37;;;9.40;99.90;;;;;;6124358;23;20475;-70
2023/02/12 04:24:41;;;;;;;28.73;11.40;;;9.40;99.90;;;;;;6124601;23;20472;-70
2023/02/12 04:27:16;;;;;;;23.67;12.60;;;9.60;99.90;;;;;;6124895;23;20391;-70
2023/02/12 04:29:49;;;;;;;24.00;12.47;;;9.70;99.90;;;;;;6124438;23;20474;-70
2023/02/12 04:32:22;;;;;;;21.80;13.40;;;9.40;99.90;;;;;;6123567;23;20423;-70
2023/02/12 04:34:54;;;;;;;22.60;11.00;;;9.40;99.90;;;;;;6123788;23;20709;-70
2023/02/12 04:37:25;;;;;;;21.63;12.03;;;9.30;99.90;;;;;;6123989;23;20483;-70
2023/02/12 04:39:54;;;;;;;22.50;13.60;;;9.40;99.90;;;;;;6123351;23;20468;-70
2023/02/12 04:42:21;;;;;;;26.40;12.87;;;9.40;99.90;;;;;;6123583;23;20409;-70
2023/02/12 04:44:48;;;;;;;24.33;13.40;;;9.50;99.90;;;;;;6125575;23;20497;-68
2023/02/12 04:47:17;;;;;;;33.60;12.27;;;9.50;99.90;;;;;;6135399;23;20990;-70
2023/02/12 04:49:44;;;;;;;24.30;12.00;;;9.50;99.90;;;;;;6124146;23;20440;-70
2023/02/12 04:52:10;;;;;;;29.87;12.97;;;9.30;99.90;;;;;;6123519;23;20514;-70
2023/02/12 04:54:38;;;;;;;28.07;14.33;;;9.40;99.90;;;;;;6123848;23;20731;-70
2023/02/12 04:57:05;;;;;;;27.47;13.73;;;9.20;99.90;;;;;;6123979;23;20386;-70
2023/02/12 04:59:32;;;;;;;23.27;11.67;;;9.20;99.90;;;;;;6123864;23;20953;-70
2023/02/12 05:01:59;;;;;;;22.30;11.20;;;9.40;99.90;;;;;;6123720;23;20431;-70
2023/02/12 05:04:27;;;;;;;23.57;10.97;;;9.30;99.90;;;;;;6123596;23;20778;-70
2023/02/12 05:06:54;;;;;;;24.07;12.17;;;9.30;99.90;;;;;;6123660;23;20413;-70
2023/02/12 05:09:21;;;;;;;23.27;12.00;;;9.40;99.90;;;;;;6124093;23;20407;-70
2023/02/12 05:11:48;;;;;;;26.23;14.23;;;9.40;99.90;;;;;;6123461;23;20765;-70
2023/02/12 05:14:15;;;;;;;44.20;15.40;;;9.40;99.90;;;;;;6125563;23;20389;-70
2023/02/12 05:16:42;;;;;;;31.27;12.93;;;9.40;99.90;;;;;;6125536;23;20909;-70
2023/02/12 05:19:09;;;;;;;23.53;10.70;;;9.30;99.90;;;;;;6125490;23;20403;-70
2023/02/12 05:21:37;;;;;;;26.13;11.03;;;9.30;99.90;;;;;;6125371;23;20615;-70
2023/02/12 05:24:05;;;;;;;28.10;13.30;;;9.30;99.90;;;;;;6124257;23;20845;-70
2023/02/12 05:26:32;;;;;;;31.80;11.00;;;9.30;99.90;;;;;;6125186;23;20502;-70
2023/02/12 05:28:59;;;;;;;18.80;9.57;;;9.30;99.90;;;;;;6125140;23;20963;-71
2023/02/12 05:31:26;;;;;;;29.43;12.27;;;9.30;99.90;;;;;;6125646;23;20510;-70
2023/02/12 05:33:52;;;;;;;25.33;10.70;;;9.30;99.90;;;;;;6125786;23;20957;-70
2023/02/12 05:36:21;;;;;;;39.80;14.00;;;9.40;99.90;;;;;;6125467;23;20413;-70
2023/02/12 05:38:50;;;;;;;29.67;11.87;;;9.40;99.90;;;;;;6126120;23;20390;-70
2023/02/12 05:41:18;;;;;;;34.37;13.17;;;9.40;99.90;;;;;;6124385;23;20458;-70
2023/02/12 05:43:46;;;;;;;27.97;13.17;;;9.40;99.90;;;;;;6131472;23;20453;-70
2023/02/12 05:46:13;;;;;;;21.63;12.00;;;9.40;99.90;;;;;;6128812;23;20472;-70
2023/02/12 05:48:40;;;;;;;29.20;13.77;;;9.40;99.90;;;;;;6124640;23;20417;-70
2023/02/12 05:51:09;;;;;;;21.03;11.87;;;9.30;99.90;;;;;;6124199;23;20484;-70
2023/02/12 05:53:38;;;;;;;23.33;11.60;;;9.30;99.90;;;;;;6124230;23;20419;-69
2023/02/12 05:56:12;;;;;;;25.47;12.10;;;9.40;99.90;;;;;;6124344;23;20473;-70
2023/02/12 05:58:39;;;;;;;26.10;10.80;;;9.40;99.90;;;;;;6124638;23;20373;-69
2023/02/12 06:01:10;;;;;;;21.23;10.60;;;9.40;99.90;;;;;;6124141;23;20434;-70
2023/02/12 06:03:37;;;;;;;28.97;12.70;;;9.40;99.90;;;;;;6124748;23;20477;-69
2023/02/12 06:06:05;;;;;;;29.90;13.20;;;9.40;99.90;;;;;;6124338;23;21046;-68
2023/02/12 06:08:32;;;;;;;22.47;11.53;;;9.40;99.90;;;;;;6124581;23;20746;-69
2023/02/12 06:11:01;;;;;;;26.30;15.10;;;9.40;99.90;;;;;;6072526;23;20803;-70
2023/02/12 06:13:29;;;;;;;26.60;13.10;;;9.40;99.90;;;;;;6124515;23;20729;-69
2023/02/12 06:15:58;;;;;;;27.57;13.80;;;9.40;99.90;;;;;;6124096;23;20817;-70
2023/02/12 06:18:25;;;;;;;26.37;13.77;;;9.30;99.90;;;;;;6124425;23;20704;-70
2023/02/12 06:20:53;;;;;;;29.40;11.83;;;9.40;99.90;;;;;;6123696;23;20456;-70
2023/02/12 06:23:20;;;;;;;23.87;12.43;;;9.30;99.90;;;;;;6122388;23;20389;-69
2023/02/12 06:25:47;;;;;;;29.30;11.87;;;9.40;99.90;;;;;;6123381;23;20529;-69
2023/02/12 06:28:14;;;;;;;21.63;11.87;;;9.40;99.90;;;;;;6123493;23;20514;-68
2023/02/12 06:30:42;;;;;;;23.50;12.23;;;9.40;99.90;;;;;;6124251;23;20477;-69
2023/02/12 06:33:10;;;;;;;29.80;13.03;;;9.40;99.90;;;;;;6125606;23;20385;-70
2023/02/12 06:35:37;;;;;;;30.70;15.30;;;9.30;99.90;;;;;;6125138;23;20723;-70
2023/02/12 06:38:05;;;;;;;29.17;12.30;;;9.40;99.90;;;;;;6124786;23;20439;-70
2023/02/12 06:40:31;;;;;;;25.23;12.47;;;9.40;99.90;;;;;;6124395;23;20419;-72
2023/02/12 06:42:58;;;;;;;24.10;10.77;;;9.30;99.90;;;;;;6131329;23;20406;-70
2023/02/12 06:45:25;;;;;;;19.70;10.80;;;9.30;99.90;;;;;;6123719;23;20396;-70
2023/02/12 06:47:54;;;;;;;27.13;13.00;;;9.30;99.90;;;;;;6124974;23;20378;-70
2023/02/12 06:50:21;;;;;;;37.20;15.43;;;9.30;99.90;;;;;;6123912;23;20490;-70
2023/02/12 06:52:48;;;;;;;23.10;11.50;;;9.30;99.90;;;;;;6122910;23;20725;-69
2023/02/12 06:55:15;;;;;;;30.50;12.83;;;9.30;99.90;;;;;;6125202;23;20499;-71
2023/02/12 06:57:43;;;;;;;37.00;15.80;;;9.30;99.90;;;;;;6124221;23;20386;-70
2023/02/12 07:00:12;;;;;;;28.60;18.20;;;9.30;99.90;;;;;;6123438;23;20385;-70
2023/02/12 07:02:39;;;;;;;31.57;13.87;;;9.40;99.90;;;;;;6124378;23;20490;-70
2023/02/12 07:05:09;;;;;;;22.80;13.93;;;9.40;99.90;;;;;;6124608;23;20392;-70
2023/02/12 07:07:36;;;;;;;32.87;13.77;;;9.30;99.90;;;;;;6123667;23;20417;-70
2023/02/12 07:10:03;;;;;;;32.10;14.07;;;9.40;99.90;;;;;;6124504;23;20381;-70
2023/02/12 07:12:30;;;;;;;34.50;17.30;;;9.40;99.90;;;;;;6124182;23;20944;-69
2023/02/12 07:14:57;;;;;;;27.77;13.57;;;9.40;99.90;;;;;;6124502;23;20581;-70
2023/02/12 07:17:25;;;;;;;36.13;13.50;;;9.40;99.90;;;;;;6124857;23;20445;-70
2023/02/12 07:19:52;;;;;;;27.87;13.93;;;9.30;99.90;;;;;;6124070;23;20464;-70
2023/02/12 07:22:21;;;;;;;30.93;15.10;;;9.30;99.90;;;;;;6123730;23;20437;-71
2023/02/12 07:24:48;;;;;;;25.63;14.70;;;9.30;99.90;;;;;;6123722;23;20397;-70
2023/02/12 07:27:15;;;;;;;22.23;12.50;;;9.30;99.90;;;;;;6123567;23;21012;-70
2023/02/12 07:29:43;;;;;;;25.10;13.00;;;9.30;99.90;;;;;;6124918;23;20382;-71
2023/02/12 07:32:10;;;;;;;32.60;13.60;;;9.30;99.90;;;;;;6124770;23;20750;-72
2023/02/12 07:34:37;;;;;;;33.77;15.07;;;9.30;99.90;;;;;;6121311;23;20943;-70
2023/02/12 07:37:05;;;;;;;39.67;14.47;;;9.40;99.90;;;;;;6123291;23;20385;-70
2023/02/12 07:39:34;;;;;;;23.50;12.90;;;9.40;99.90;;;;;;6123033;23;20419;-70
2023/02/12 07:42:01;;;;;;;35.57;15.77;;;9.50;99.90;;;;;;6125009;23;20490;-70
2023/02/12 07:44:28;;;;;;;32.77;14.20;;;9.50;99.90;;;;;;6122829;23;20389;-70
2023/02/12 07:46:55;;;;;;;30.10;16.67;;;9.60;99.90;;;;;;6123690;23;20493;-70
2023/02/12 07:49:23;;;;;;;33.73;15.10;;;9.60;99.90;;;;;;6122841;23;20453;-70
2023/02/12 07:51:50;;;;;;;29.17;13.53;;;9.80;99.90;;;;;;6124239;23;20455;-70
2023/02/12 07:54:20;;;;;;;38.17;15.20;;;9.70;99.90;;;;;;6124139;23;20407;-70
2023/02/12 07:56:49;;;;;;;29.53;14.77;;;9.70;99.90;;;;;;6124197;23;20481;-70
2023/02/12 07:59:18;;;;;;;35.53;14.80;;;9.70;99.90;;;;;;6123781;23;20417;-70
2023/02/12 08:01:47;;;;;;;32.47;16.30;;;9.80;99.90;;;;;;6123850;23;20398;-69
2023/02/12 08:04:16;;;;;;;24.20;14.43;;;9.90;99.90;;;;;;6123316;23;20893;-70
2023/02/12 08:06:45;;;;;;;36.43;13.13;;;9.90;99.90;;;;;;6124586;23;20455;-70
2023/02/12 08:09:14;;;;;;;35.83;14.40;;;10.00;99.90;;;;;;6124614;23;20418;-70
2023/02/12 08:11:42;;;;;;;29.30;15.87;;;10.00;99.90;;;;;;6126808;23;20412;-70
2023/02/12 08:14:13;;;;;;;26.33;13.70;;;10.00;99.90;;;;;;6123635;23;20386;-70
2023/02/12 08:16:42;;;;;;;34.90;16.90;;;10.10;99.90;;;;;;6123655;23;20464;-70
2023/02/12 08:19:09;;;;;;;26.97;13.73;;;10.10;99.90;;;;;;6124292;23;20494;-70
2023/02/12 08:21:36;;;;;;;25.40;13.27;;;10.10;99.90;;;;;;6123713;23;20444;-70
2023/02/12 08:24:04;;;;;;;29.50;15.47;;;10.20;99.90;;;;;;6123890;23;20394;-70
2023/02/12 08:26:32;;;;;;;27.37;13.70;;;10.20;99.90;;;;;;6123986;23;20447;-70
2023/02/12 08:29:02;;;;;;;28.03;13.20;;;10.20;99.90;;;;;;6124102;23;20385;-70
2023/02/12 08:31:33;;;;;;;27.63;11.83;;;10.10;99.90;;;;;;6124515;23;20435;-71
2023/02/12 08:34:01;;;;;;;22.77;12.67;;;10.30;99.90;;;;;;6124130;23;20444;-69
2023/02/12 08:36:30;;;;;;;23.70;12.20;;;10.30;99.90;;;;;;6124755;23;20493;-69
2023/02/12 08:38:58;;;;;;;46.27;16.60;;;10.40;99.90;;;;;;6130348;23;20716;-70
2023/02/12 08:41:27;;;;;;;31.03;15.83;;;10.40;99.90;;;;;;6124084;23;20459;-70
2023/02/12 08:43:56;;;;;;;29.03;15.73;;;10.40;99.90;;;;;;6124609;23;20408;-69
2023/02/12 08:46:24;;;;;;;28.07;13.97;;;10.40;99.90;;;;;;6124041;23;20711;-70
2023/02/12 08:48:55;;;;;;;36.73;13.90;;;10.30;99.90;;;;;;6126508;23;20400;-70
2023/02/12 08:51:25;;;;;;;29.00;14.27;;;10.20;99.90;;;;;;6127394;23;20434;-71
2023/02/12 08:53:54;;;;;;;23.77;13.10;;;10.30;99.90;;;;;;6127065;23;20389;-71
2023/02/12 08:56:22;;;;;;;30.17;14.23;;;10.30;99.90;;;;;;6125836;23;20415;-71
2023/02/12 08:58:51;;;;;;;26.60;11.67;;;10.40;99.90;;;;;;6126458;23;20911;-71
2023/02/12 09:01:20;;;;;;;31.37;14.40;;;10.40;99.90;;;;;;6126017;23;20424;-71
2023/02/12 09:03:48;;;;;;;37.80;15.50;;;10.30;99.90;;;;;;6126272;23;20789;-71
2023/02/12 09:06:18;;;;;;;35.83;15.00;;;10.40;99.90;;;;;;6126539;23;20556;-70
2023/02/12 09:08:46;;;;;;;28.17;12.60;;;10.30;99.90;;;;;;6126495;23;20454;-70
2023/02/12 09:11:15;;;;;;;37.73;16.00;;;10.40;99.90;;;;;;6126349;23;20509;-71
2023/02/12 09:13:43;;;;;;;26.30;13.93;;;10.40;99.90;;;;;;6126290;23;20454;-71
2023/02/12 09:16:10;;;;;;;28.33;14.90;;;10.20;99.90;;;;;;6126008;23;20403;-69
2023/02/12 09:18:38;;;;;;;34.20;15.97;;;10.20;99.90;;;;;;6124491;23;20405;-70
2023/02/12 09:21:07;;;;;;;27.70;12.90;;;10.30;99.90;;;;;;6125092;23;20462;-70
2023/02/12 09:23:37;;;;;;;31.43;13.80;;;10.40;99.90;;;;;;6125199;23;20385;-70
2023/02/12 09:26:05;;;;;;;28.17;13.07;;;10.40;99.90;;;;;;6125117;23;20398;-70
2023/02/12 09:28:32;;;;;;;27.63;12.90;;;10.50;99.90;;;;;;6125296;23;20461;-71
2023/02/12 09:30:59;;;;;;;23.43;13.10;;;10.60;99.90;;;;;;6125769;23;20462;-70
2023/02/12 09:33:27;;;;;;;27.77;14.33;;;10.50;99.90;;;;;;6126739;23;20422;-71
2023/02/12 09:35:54;;;;;;;28.23;14.23;;;10.60;99.90;;;;;;6134097;23;20398;-69
2023/02/12 09:38:20;;;;;;;23.20;12.50;;;10.70;99.90;;;;;;6125550;23;20474;-70
2023/02/12 09:41:08;;;;;;;19.77;10.10;;;10.80;99.90;;;;;;6124371;23;20382;-70
2023/02/12 09:43:42;;;;;;;21.67;12.33;;;10.70;99.90;;;;;;6124697;23;20395;-70
2023/02/12 09:46:16;;;;;;;21.53;12.47;;;10.70;99.90;;;;;;6124395;23;20436;-71
2023/02/12 09:48:54;;;;;;;33.03;12.40;;;10.70;99.90;;;;;;6124617;23;20378;-71
2023/02/12 09:51:22;;;;;;;29.63;13.57;;;10.90;99.90;;;;;;6125215;23;20802;-71
2023/02/12 09:53:54;;;;;;;36.73;14.30;;;11.10;99.90;;;;;;6124614;23;20389;-70
2023/02/12 09:56:24;;;;;;;32.10;13.77;;;11.10;99.90;;;;;;6124456;23;20454;-71
2023/02/12 09:58:53;;;;;;;29.93;13.90;;;11.20;99.90;;;;;;6073803;23;20502;-71
2023/02/12 10:01:22;;;;;;;27.77;14.40;;;11.30;99.90;;;;;;6125166;23;20899;-71
2023/02/12 10:03:50;;;;;;;23.30;13.20;;;11.20;99.90;;;;;;6124811;23;20898;-68
2023/02/12 10:06:19;;;;;;;35.00;16.93;;;11.20;99.90;;;;;;6124104;23;20381;-70
2023/02/12 10:08:59;;;;;;;22.07;11.40;;;11.20;99.90;;;;;;6124928;23;20418;-71
2023/02/12 10:11:51;;;;;;;23.90;10.70;;;11.20;99.90;;;;;;6125994;23;20458;-71
2023/02/12 10:14:41;;;;;;;19.73;12.40;;;11.20;99.90;;;;;;6115089;23;20944;-69
2023/02/12 10:17:17;;;;;;;23.77;12.63;;;11.30;99.90;;;;;;6125265;23;20415;-70
2023/02/12 10:20:20;;;;;;;31.60;12.20;;;11.30;99.90;;;;;;6123945;23;20391;-70
2023/02/12 10:22:56;;;;;;;27.40;13.20;;;11.60;99.90;;;;;;6079976;23;20482;-70
2023/02/12 10:25:27;;;;;;;20.40;9.27;;;11.70;99.90;;;;;;6124761;23;20903;-69
2023/02/12 10:27:59;;;;;;;17.00;11.10;;;11.60;99.90;;;;;;6125409;23;20522;-70
2023/02/12 10:30:31;;;;;;;23.97;12.40;;;11.60;99.90;;;;;;6125941;23;20427;-71
2023/02/12 10:33:03;;;;;;;17.30;11.03;;;11.70;99.90;;;;;;6125976;23;20395;-70
2023/02/12 10:35:31;;;;;;;22.63;10.40;;;11.80;99.90;;;;;;6129915;23;20462;-70
2023/02/12 10:38:05;;;;;;;21.50;10.70;;;11.90;99.90;;;;;;6125619;23;20482;-69
2023/02/12 10:40:34;;;;;;;19.07;10.47;;;12.00;99.90;;;;;;6125290;23;20366;-70
2023/02/12 10:43:02;;;;;;;15.40;10.10;;;11.90;99.90;;;;;;6124201;23;20411;-69
2023/02/12 10:45:31;;;;;;;17.50;9.90;;;11.70;99.90;;;;;;6125207;23;20422;-69
2023/02/12 10:48:10;;;;;;;16.77;8.63;;;11.60;99.90;;;;;;6124886;23;20447;-70
2023/02/12 10:50:48;;;;;;;19.10;11.20;;;11.70;99.90;;;;;;6123705;23;20445;-70
2023/02/12 10:53:21;;;;;;;21.27;9.70;;;11.80;99.90;;;;;;6127603;23;20950;-70
2023/02/12 10:55:48;;;;;;;18.00;9.40;;;12.10;99.90;;;;;;6128021;23;20395;-70
2023/02/12 10:58:24;;;;;;;17.10;9.67;;;12.30;99.90;;;;;;6139552;23;20400;-70
2023/02/12 11:00:58;;;;;;;29.80;14.33;;;12.30;99.90;;;;;;6127737;23;20505;-70
2023/02/12 11:03:29;;;;;;;18.47;9.67;;;12.10;99.90;;;;;;6125528;23;20438;-69
2023/02/12 11:05:56;;;;;;;19.30;9.43;;;11.90;99.90;;;;;;6124785;23;20399;-71
2023/02/12 11:08:32;;;;;;;19.00;10.63;;;11.90;99.90;;;;;;6096690;23;20413;-69
2023/02/12 11:11:11;;;;;;;21.60;11.53;;;12.00;99.90;;;;;;6124751;23;20397;-70
2023/02/12 11:13:45;;;;;;;17.10;9.33;;;12.10;99.90;;;;;;6124847;23;20370;-70
2023/02/12 11:16:13;;;;;;;15.40;8.20;;;12.30;99.90;;;;;;6124257;23;20391;-70
2023/02/12 11:18:44;;;;;;;17.60;11.67;;;12.20;99.90;;;;;;6124194;23;20411;-70
2023/02/12 11:21:12;;;;;;;17.67;8.73;;;11.90;99.90;;;;;;6124143;23;20819;-71
2023/02/12 11:23:42;;;;;;;17.00;9.00;;;11.70;99.90;;;;;;6123997;23;20411;-71
2023/02/12 11:26:24;;;;;;;19.80;9.33;;;11.80;99.90;;;;;;6124442;23;20391;-70
2023/02/12 11:28:56;;;;;;;17.43;10.37;;;11.90;99.90;;;;;;6124924;23;20405;-70
2023/02/12 11:31:25;;;;;;;19.97;9.30;;;11.90;99.90;;;;;;6136448;23;20472;-71
2023/02/12 11:34:08;;;;;;;19.53;9.93;;;11.80;99.90;;;;;;6127693;23;20911;-71
2023/02/12 11:36:37;;;;;;;20.50;9.50;;;11.90;99.90;;;;;;6123487;23;20391;-71
2023/02/12 11:39:10;;;;;;;22.10;10.30;;;12.10;99.90;;;;;;6123926;23;20407;-70
2023/02/12 11:41:40;;;;;;;21.10;10.10;;;12.00;99.90;;;;;;6122478;23;20431;-70
2023/02/12 11:44:13;;;;;;;16.33;9.20;;;12.10;99.90;;;;;;6124103;23;20431;-70
2023/02/12 11:46:46;;;;;;;19.70;12.33;;;12.10;99.90;;;;;;6123725;23;20388;-73
2023/02/12 11:49:21;;;;;;;16.43;10.03;;;12.00;99.90;;;;;;6123917;23;20362;-71
2023/02/12 11:51:50;;;;;;;20.07;10.37;;;12.10;99.90;;;;;;6123868;23;20521;-71
2023/02/12 11:54:23;;;;;;;21.23;10.37;;;12.10;99.90;;;;;;6123613;23;20399;-70
2023/02/12 11:56:50;;;;;;;20.47;11.60;;;12.20;99.90;;;;;;6073390;23;20498;-70
2023/02/12 11:59:33;;;;;;;20.90;10.87;;;12.20;99.90;;;;;;6122743;23;20498;-71
2023/02/12 12:02:06;;;;;;;21.43;10.77;;;11.90;99.90;;;;;;6123222;23;20427;-71
2023/02/12 12:04:35;;;;;;;19.67;11.83;;;12.00;99.90;;;;;;6122994;23;20487;-71
2023/02/12 12:07:11;;;;;;;24.63;11.13;;;12.00;99.90;;;;;;6122553;23;20898;-71
2023/02/12 12:09:44;;;;;;;20.30;10.67;;;12.10;99.90;;;;;;6123440;23;20394;-68
2023/02/12 12:12:18;;;;;;;20.63;12.93;;;12.10;99.90;;;;;;6121974;23;20405;-69
2023/02/12 12:20:33;;;;;;;20.23;9.73;;;12.10;99.90;;;;;;6122114;23;20379;-68
2023/02/12 12:23:06;;;;;;;15.40;9.30;;;11.90;99.90;;;;;;6122365;23;20474;-71
2023/02/12 12:25:42;;;;;;;24.70;11.30;;;12.00;99.90;;;;;;6122281;23;20423;-70
2023/02/12 12:28:28;;;;;;;17.60;9.47;;;12.00;99.90;;;;;;6123787;23;20435;-71
2023/02/12 12:31:04;;;;;;;24.13;13.63;;;12.20;99.90;;;;;;6133025;23;20434;-70
2023/02/12 12:33:37;;;;;;;16.97;9.43;;;12.20;99.90;;;;;;6122317;23;20470;-70
2023/02/12 12:36:26;;;;;;;20.03;10.40;;;12.20;99.90;;;;;;6123476;23;20391;-71
2023/02/12 12:39:03;;;;;;;23.60;10.87;;;12.20;99.90;;;;;;6124676;23;20377;-72
2023/02/12 12:41:41;;;;;;;19.90;9.03;;;12.00;99.90;;;;;;6123734;23;20467;-72
2023/02/12 12:44:19;;;;;;;19.57;11.27;;;12.10;99.90;;;;;;6124124;23;20615;-70
2023/02/12 12:47:02;;;;;;;20.23;8.80;;;12.20;99.90;;;;;;6097521;23;20394;-71
2023/02/12 12:49:49;;;;;;;17.60;9.33;;;12.30;99.90;;;;;;6124303;23;20894;-70
2023/02/12 12:52:35;;;;;;;21.13;10.23;;;12.30;99.90;;;;;;6125204;23;20422;-70
2023/02/12 12:55:31;;;;;;;30.90;13.43;;;12.40;99.90;;;;;;6124071;23;20370;-70
2023/02/12 12:58:06;;;;;;;26.67;12.90;;;12.40;99.90;;;;;;6100563;23;20411;-71
2023/02/12 13:00:49;;;;;;;18.60;10.10;;;12.30;99.90;;;;;;6122989;23;20391;-71